createdAt,value
2022-09-18T00:01:36.630Z,64.20
2022-09-18T00:04:06.960Z,64.00
2022-09-18T00:06:38.165Z,64.20
2022-09-18T00:09:08.920Z,64.20
2022-09-18T00:11:43.343Z,64.10
2022-09-18T00:14:14.943Z,64.10
2022-09-18T00:16:43.055Z,64.20
2022-09-18T00:19:11.991Z,64.20
2022-09-18T00:21:42.245Z,64.20
2022-09-18T00:24:10.365Z,64.20
2022-09-18T00:26:40.290Z,64.20
2022-09-18T00:29:08.476Z,64.30
2022-09-18T00:31:37.375Z,64.30
2022-09-18T00:34:13.103Z,64.20
2022-09-18T00:36:41.776Z,64.30
2022-09-18T00:39:10.474Z,64.30
2022-09-18T00:41:42.285Z,64.30
2022-09-18T00:44:37.236Z,64.20
2022-09-18T00:47:17.253Z,64.30
2022-09-18T00:49:49.831Z,64.20
2022-09-18T00:52:20.046Z,64.30
2022-09-18T00:54:51.854Z,64.30
2022-09-18T00:57:25.945Z,64.30
2022-09-18T00:59:55.525Z,64.20
2022-09-18T01:02:23.693Z,64.10
2022-09-18T01:04:52.376Z,64.20
2022-09-18T01:07:31.272Z,64.10
2022-09-18T01:10:07.196Z,64.20
2022-09-18T01:12:45.076Z,64.20
2022-09-18T01:15:19.155Z,64.20
2022-09-18T01:17:55.878Z,64.30
2022-09-18T01:20:55.903Z,64.30
2022-09-18T01:24:10.832Z,64.30
2022-09-18T01:26:55.171Z,64.30
2022-09-18T01:29:36.046Z,64.30
2022-09-18T01:32:09.682Z,64.30
2022-09-18T01:34:45.260Z,64.10
2022-09-18T01:37:19.698Z,64.30
2022-09-18T01:39:54.841Z,64.30
2022-09-18T01:42:26.332Z,64.30
2022-09-18T01:44:59.791Z,64.30
2022-09-18T01:47:32.597Z,64.30
2022-09-18T01:50:02.796Z,64.30
2022-09-18T01:52:38.065Z,64.30
2022-09-18T01:55:12.333Z,64.30
2022-09-18T01:57:45.735Z,64.30
2022-09-18T02:00:16.033Z,64.30
2022-09-18T02:02:47.309Z,64.20
2022-09-18T02:05:19.706Z,64.30
2022-09-18T02:07:54.950Z,64.30
2022-09-18T02:10:26.103Z,64.30
2022-09-18T02:12:58.018Z,64.30
2022-09-18T02:15:32.967Z,64.20
2022-09-18T02:18:13.116Z,64.30
2022-09-18T02:20:44.553Z,64.30
2022-09-18T02:23:13.231Z,64.30
2022-09-18T02:25:45.722Z,64.30
2022-09-18T02:28:16.352Z,64.30
2022-09-18T02:30:46.862Z,64.20
2022-09-18T02:33:29.226Z,64.30
2022-09-18T02:36:25.901Z,64.30
2022-09-18T02:39:05.280Z,64.30
2022-09-18T02:41:42.715Z,64.20
2022-09-18T02:44:20.729Z,64.20
2022-09-18T02:46:59.101Z,64.20
2022-09-18T02:49:37.657Z,64.30
2022-09-18T02:52:12.466Z,64.30
2022-09-18T02:54:48.230Z,64.30
2022-09-18T02:57:21.761Z,64.30
2022-09-18T02:59:55.404Z,64.30
2022-09-18T03:02:26.664Z,64.30
2022-09-18T03:04:54.986Z,64.30
2022-09-18T03:07:28.370Z,64.30
2022-09-18T03:09:57.740Z,64.30
2022-09-18T03:12:25.875Z,64.30
2022-09-18T03:14:53.935Z,64.30
2022-09-18T03:17:22.031Z,64.30
2022-09-18T03:19:51.525Z,64.30
2022-09-18T03:22:19.636Z,64.30
2022-09-18T03:24:49.258Z,64.30
2022-09-18T03:27:19.049Z,64.30
2022-09-18T03:29:47.412Z,64.30
2022-09-18T03:32:17.122Z,64.30
2022-09-18T03:34:52.190Z,64.30
2022-09-18T03:37:20.267Z,64.30
2022-09-18T03:39:49.765Z,64.30
2022-09-18T03:42:17.853Z,64.30
2022-09-18T03:44:45.947Z,64.30
2022-09-18T03:47:21.512Z,64.30
2022-09-18T03:49:50.979Z,64.30
2022-09-18T03:52:20.473Z,64.30
2022-09-18T03:54:58.814Z,64.30
2022-09-18T03:58:02.010Z,64.30
2022-09-18T04:00:45.775Z,64.30
2022-09-18T04:03:22.832Z,64.30
2022-09-18T04:06:10.962Z,64.10
2022-09-18T04:08:57.629Z,64.30
2022-09-18T04:11:35.021Z,64.30
2022-09-18T04:14:08.215Z,64.30
2022-09-18T04:16:36.423Z,64.30
2022-09-18T04:19:04.866Z,64.30
2022-09-18T04:21:34.376Z,64.30
2022-09-18T04:24:02.871Z,64.30
2022-09-18T04:26:31.285Z,64.30
2022-09-18T04:29:01.732Z,64.20
2022-09-18T04:31:30.806Z,64.30
2022-09-18T04:34:02.986Z,64.30
2022-09-18T04:36:31.086Z,64.30
2022-09-18T04:39:00.696Z,64.20
2022-09-18T04:41:28.894Z,64.20
2022-09-18T04:43:57.586Z,64.20
2022-09-18T04:46:25.795Z,64.30
2022-09-18T04:48:54.668Z,64.20
2022-09-18T04:51:26.055Z,64.30
2022-09-18T04:53:54.212Z,64.30
2022-09-18T04:56:25.782Z,64.30
2022-09-18T04:58:55.202Z,64.30
2022-09-18T05:01:23.793Z,64.30
2022-09-18T05:03:52.022Z,64.30
2022-09-18T05:06:28.697Z,64.30
2022-09-18T05:08:56.860Z,64.30
2022-09-18T05:11:28.434Z,64.30
2022-09-18T05:13:58.097Z,64.30
2022-09-18T05:16:29.026Z,64.30
2022-09-18T05:19:16.038Z,64.30
2022-09-18T05:21:44.210Z,64.30
2022-09-18T05:24:14.105Z,64.30
2022-09-18T05:26:44.739Z,64.30
2022-09-18T05:29:13.290Z,64.40
2022-09-18T05:31:42.869Z,64.40
2022-09-18T05:34:11.103Z,64.40
2022-09-18T05:36:41.491Z,64.40
2022-09-18T05:39:11.317Z,64.40
2022-09-18T05:41:44.442Z,64.40
2022-09-18T05:44:13.731Z,64.40
2022-09-18T05:46:41.940Z,64.40
2022-09-18T05:49:10.709Z,64.40
2022-09-18T05:51:39.073Z,64.40
2022-09-18T05:54:07.502Z,64.30
2022-09-18T05:56:46.804Z,64.40
2022-09-18T05:59:14.967Z,64.30
2022-09-18T06:01:47.386Z,64.30
2022-09-18T06:04:34.156Z,64.40
2022-09-18T06:07:09.241Z,64.30
2022-09-18T06:09:37.375Z,64.30
2022-09-18T06:12:07.616Z,64.30
2022-09-18T06:14:37.923Z,64.30
2022-09-18T06:17:06.081Z,64.30
2022-09-18T06:19:36.394Z,64.30
2022-09-18T06:22:04.525Z,64.30
2022-09-18T06:24:34.651Z,64.30
2022-09-18T06:27:16.928Z,64.30
2022-09-18T06:29:46.147Z,64.30
2022-09-18T06:32:17.662Z,64.30
2022-09-18T06:34:45.856Z,64.30
2022-09-18T06:37:16.196Z,64.40
2022-09-18T06:39:44.688Z,64.30
2022-09-18T06:42:26.736Z,64.30
2022-09-18T06:45:13.141Z,64.30
2022-09-18T06:47:41.406Z,64.30
2022-09-18T06:50:10.588Z,64.30
2022-09-18T06:52:38.849Z,64.30
2022-09-18T06:55:07.695Z,64.40
2022-09-18T06:57:37.176Z,64.30
2022-09-18T07:00:06.565Z,64.30
2022-09-18T07:02:39.159Z,64.30
2022-09-18T07:05:46.058Z,64.40
2022-09-18T07:08:25.743Z,64.40
2022-09-18T07:11:03.057Z,64.40
2022-09-18T07:13:33.266Z,64.30
2022-09-18T07:16:01.921Z,64.30
2022-09-18T07:18:30.346Z,64.20
2022-09-18T07:21:00.180Z,64.30
2022-09-18T07:23:38.705Z,64.30
2022-09-18T07:26:06.943Z,64.20
2022-09-18T07:28:38.210Z,64.30
2022-09-18T07:31:18.470Z,64.40
2022-09-18T07:33:52.578Z,64.40
2022-09-18T07:36:22.041Z,64.30
2022-09-18T07:38:52.488Z,64.20
2022-09-18T07:41:21.815Z,64.40
2022-09-18T07:43:51.956Z,64.30
2022-09-18T07:46:20.506Z,64.40
2022-09-18T07:48:50.896Z,64.20
2022-09-18T07:51:26.811Z,64.40
2022-09-18T07:53:57.052Z,64.30
2022-09-18T07:56:47.057Z,64.30
2022-09-18T07:59:20.047Z,64.30
2022-09-18T08:01:58.129Z,64.60
2022-09-18T08:04:29.618Z,64.40
2022-09-18T08:07:17.098Z,64.40
2022-09-18T08:09:58.250Z,64.40
2022-09-18T08:12:46.022Z,64.40
2022-09-18T08:15:34.983Z,64.40
2022-09-18T08:18:41.657Z,64.40
2022-09-18T08:21:16.579Z,64.90
2022-09-18T08:23:48.067Z,65.20
2022-09-18T08:26:21.447Z,65.50
2022-09-18T08:28:51.367Z,65.40
2022-09-18T08:31:20.996Z,65.00
2022-09-18T08:33:52.957Z,64.80
2022-09-18T08:36:21.469Z,65.00
2022-09-18T08:39:02.353Z,64.90
2022-09-18T08:42:14.035Z,65.00
2022-09-18T08:44:49.378Z,64.90
2022-09-18T08:47:26.627Z,64.90
2022-09-18T08:50:02.405Z,64.80
2022-09-18T08:52:33.740Z,64.80
2022-09-18T08:55:18.785Z,65.10
2022-09-18T08:58:11.729Z,65.50
2022-09-18T09:00:48.517Z,65.40
2022-09-18T09:03:32.301Z,65.30
2022-09-18T09:06:04.629Z,65.50
2022-09-18T09:09:01.943Z,65.40
2022-09-18T09:11:41.826Z,65.50
2022-09-18T09:14:56.160Z,65.40
2022-09-18T09:17:38.548Z,65.50
2022-09-18T09:20:19.881Z,65.50
2022-09-18T09:22:56.307Z,65.50
2022-09-18T09:25:31.027Z,65.80
2022-09-18T09:28:26.224Z,65.90
2022-09-18T09:31:23.756Z,65.80
2022-09-18T09:34:23.009Z,65.60
2022-09-18T09:37:16.638Z,65.80
2022-09-18T09:39:50.399Z,65.70
2022-09-18T09:42:26.246Z,65.60
2022-09-18T09:45:00.275Z,65.60
2022-09-18T09:47:35.723Z,65.50
2022-09-18T09:50:24.691Z,65.30
2022-09-18T09:53:00.113Z,65.20
2022-09-18T09:55:32.028Z,65.10
2022-09-18T09:58:11.129Z,65.20
2022-09-18T10:00:47.653Z,65.30
2022-09-18T10:03:30.222Z,65.20
2022-09-18T10:06:05.804Z,65.20
2022-09-18T10:08:42.190Z,65.20
2022-09-18T10:11:13.171Z,65.40
2022-09-18T10:13:49.824Z,65.20
2022-09-18T10:16:22.449Z,65.20
2022-09-18T10:18:51.607Z,65.10
2022-09-18T10:21:24.966Z,65.20
2022-09-18T10:23:58.958Z,65.30
2022-09-18T10:26:32.906Z,65.40
2022-09-18T10:29:02.059Z,65.10
2022-09-18T10:31:48.359Z,65.00
2022-09-18T10:34:35.908Z,64.90
2022-09-18T10:37:05.215Z,64.80
2022-09-18T10:39:37.404Z,64.80
2022-09-18T10:42:17.395Z,64.70
2022-09-18T10:44:51.279Z,64.70
2022-09-18T10:47:27.441Z,64.60
2022-09-18T10:50:02.084Z,64.60
2022-09-18T10:52:36.907Z,64.40
2022-09-18T10:55:15.075Z,64.40
2022-09-18T10:58:16.388Z,64.40
2022-09-18T11:00:57.402Z,64.20
2022-09-18T11:03:47.422Z,64.00
2022-09-18T11:06:27.139Z,63.90
2022-09-18T11:09:01.247Z,64.10
2022-09-18T11:11:33.156Z,63.70
2022-09-18T11:14:18.455Z,64.00
2022-09-18T11:17:02.345Z,63.50
2022-09-18T11:19:39.092Z,63.60
2022-09-18T11:22:34.944Z,63.50
2022-09-18T11:25:24.449Z,63.30
2022-09-18T11:27:58.860Z,63.30
2022-09-18T11:30:35.410Z,63.30
2022-09-18T11:33:15.791Z,62.90
2022-09-18T11:35:47.116Z,62.60
2022-09-18T11:38:20.035Z,62.60
2022-09-18T11:40:52.511Z,62.80
2022-09-18T11:43:28.564Z,62.80
2022-09-18T11:46:06.161Z,62.60
2022-09-18T11:48:38.557Z,62.60
2022-09-18T11:51:15.056Z,62.60
2022-09-18T11:53:46.042Z,62.80
2022-09-18T11:56:18.653Z,63.20
2022-09-18T11:58:52.401Z,63.50
2022-09-18T12:01:29.115Z,63.00
2022-09-18T12:04:03.324Z,63.10
2022-09-18T12:06:39.829Z,62.90
2022-09-18T12:09:14.898Z,63.10
2022-09-18T12:11:49.940Z,62.80
2022-09-18T12:14:25.099Z,62.80
2022-09-18T12:17:16.537Z,63.60
2022-09-18T12:19:49.591Z,63.60
2022-09-18T12:22:25.829Z,63.50
2022-09-18T12:24:53.996Z,62.90
2022-09-18T12:27:48.382Z,62.90
2022-09-18T12:30:19.674Z,62.60
2022-09-18T12:33:03.350Z,62.10
2022-09-18T12:35:44.969Z,62.30
2022-09-18T12:38:24.467Z,62.00
2022-09-18T12:41:09.566Z,62.10
2022-09-18T12:43:54.020Z,62.40
2022-09-18T12:46:40.572Z,61.90
2022-09-18T12:49:31.749Z,62.30
2022-09-18T12:52:10.857Z,62.30
2022-09-18T12:55:11.685Z,62.60
2022-09-18T12:57:51.177Z,62.40
2022-09-18T13:00:22.115Z,62.40
2022-09-18T13:02:55.664Z,62.70
2022-09-18T13:05:30.142Z,63.10
2022-09-18T13:08:08.015Z,63.00
2022-09-18T13:10:40.487Z,62.70
2022-09-18T13:13:15.482Z,62.90
2022-09-18T13:15:47.303Z,62.90
2022-09-18T13:18:35.482Z,62.90
2022-09-18T13:21:07.820Z,62.80
2022-09-18T13:23:39.051Z,62.90
2022-09-18T13:26:11.660Z,63.10
2022-09-18T13:28:42.315Z,62.90
2022-09-18T13:31:31.892Z,62.80
2022-09-18T13:34:04.171Z,62.90
2022-09-18T13:36:35.100Z,63.10
2022-09-18T13:39:07.876Z,63.20
2022-09-18T13:41:44.714Z,63.20
2022-09-18T13:44:20.446Z,63.00
2022-09-18T13:46:51.027Z,63.10
2022-09-18T13:49:26.177Z,62.90
2022-09-18T13:51:54.274Z,62.90
2022-09-18T13:54:25.497Z,63.10
2022-09-18T13:57:15.842Z,63.40
2022-09-18T13:59:52.868Z,63.00
2022-09-18T14:02:26.513Z,63.10
2022-09-18T14:05:28.719Z,63.10
2022-09-18T14:08:04.182Z,63.00
2022-09-18T14:10:37.086Z,63.20
2022-09-18T14:13:40.860Z,63.10
2022-09-18T14:16:13.535Z,63.00
2022-09-18T14:18:56.843Z,63.10
2022-09-18T14:21:28.485Z,63.10
2022-09-18T14:24:37.800Z,62.90
2022-09-18T14:27:48.799Z,63.10
2022-09-18T14:30:23.161Z,63.20
2022-09-18T14:33:15.971Z,63.10
2022-09-18T14:35:50.927Z,63.10
2022-09-18T14:38:27.489Z,63.30
2022-09-18T14:41:05.694Z,63.60
2022-09-18T14:43:33.958Z,63.30
2022-09-18T14:46:02.229Z,63.40
2022-09-18T14:48:35.922Z,63.40
2022-09-18T14:51:06.607Z,63.20
2022-09-18T14:53:44.626Z,63.80
2022-09-18T14:56:16.884Z,63.60
2022-09-18T14:58:47.793Z,63.50
2022-09-18T15:01:19.035Z,63.40
2022-09-18T15:03:50.420Z,63.40
2022-09-18T15:06:22.134Z,63.50
2022-09-18T15:08:53.426Z,63.50
2022-09-18T15:11:25.456Z,63.60
2022-09-18T15:13:55.066Z,63.50
2022-09-18T15:16:28.365Z,63.60
2022-09-18T15:18:57.115Z,63.70
2022-09-18T15:21:32.308Z,63.70
2022-09-18T15:24:03.699Z,63.60
2022-09-18T15:26:36.587Z,63.70
2022-09-18T15:29:07.190Z,63.60
2022-09-18T15:31:35.380Z,63.70
2022-09-18T15:34:07.738Z,63.70
2022-09-18T15:36:39.874Z,63.60
2022-09-18T15:39:13.675Z,63.60
2022-09-18T15:41:45.539Z,63.70
2022-09-18T15:44:51.431Z,63.80
2022-09-18T15:47:32.674Z,63.60
2022-09-18T15:50:03.118Z,63.60
2022-09-18T15:52:37.976Z,63.50
2022-09-18T15:55:15.596Z,63.50
2022-09-18T15:57:50.603Z,63.50
2022-09-18T16:00:19.380Z,63.40
2022-09-18T16:02:54.011Z,63.60
2022-09-18T16:05:23.189Z,63.70
2022-09-18T16:07:54.081Z,63.60
2022-09-18T16:10:48.941Z,63.50
2022-09-18T16:13:35.961Z,63.50
2022-09-18T16:16:23.869Z,63.40
2022-09-18T16:18:56.055Z,63.40
2022-09-18T16:21:27.006Z,63.50
2022-09-18T16:23:58.937Z,63.60
2022-09-18T16:26:30.852Z,63.60
2022-09-18T16:29:03.435Z,63.70
2022-09-18T16:31:33.942Z,63.90
2022-09-18T16:34:03.714Z,64.00
2022-09-18T16:36:34.237Z,64.00
2022-09-18T16:39:04.524Z,64.00
2022-09-18T16:41:33.609Z,64.00
2022-09-18T16:44:04.193Z,63.90
2022-09-18T16:46:35.864Z,64.00
2022-09-18T16:49:04.331Z,63.90
2022-09-18T16:51:33.583Z,64.00
2022-09-18T16:54:01.916Z,64.00
2022-09-18T16:56:32.922Z,64.10
2022-09-18T16:59:06.479Z,64.00
2022-09-18T17:02:00.096Z,64.20
2022-09-18T17:04:24.786Z,64.10
2022-09-18T17:06:53.292Z,64.20
2022-09-18T17:09:23.758Z,64.20
2022-09-18T17:11:52.186Z,64.20
2022-09-18T17:14:22.236Z,64.30
2022-09-18T17:16:50.465Z,64.30
2022-09-18T17:19:18.964Z,64.20
2022-09-18T17:21:47.198Z,64.20
2022-09-18T17:24:16.643Z,64.20
2022-09-18T17:26:44.860Z,64.20
2022-09-18T17:29:13.816Z,64.20
2022-09-18T17:31:44.708Z,64.20
2022-09-18T17:34:13.233Z,64.20
2022-09-18T17:36:41.327Z,64.20
2022-09-18T17:39:09.460Z,64.20
2022-09-18T17:41:37.569Z,64.40
2022-09-18T17:44:05.985Z,64.30
2022-09-18T17:46:34.087Z,64.30
2022-09-18T17:49:03.668Z,64.30
2022-09-18T17:51:31.987Z,64.30
2022-09-18T17:54:02.704Z,64.40
2022-09-18T17:56:31.707Z,64.40
2022-09-18T17:59:01.980Z,64.30
2022-09-18T18:01:31.137Z,64.30
2022-09-18T18:04:00.488Z,64.30
2022-09-18T18:06:30.050Z,64.30
2022-09-18T18:08:58.157Z,64.30
2022-09-18T18:11:26.599Z,64.40
2022-09-18T18:13:56.281Z,64.30
2022-09-18T18:16:27.415Z,64.40
2022-09-18T18:18:57.935Z,64.40
2022-09-18T18:21:27.290Z,64.50
2022-09-18T18:24:01.355Z,64.40
2022-09-18T18:26:32.906Z,64.50
2022-09-18T18:29:02.217Z,64.40
2022-09-18T18:31:31.282Z,64.50
2022-09-18T18:33:59.449Z,64.30
2022-09-18T18:36:29.230Z,64.40
2022-09-18T18:39:00.144Z,64.40
2022-09-18T18:41:29.899Z,64.20
2022-09-18T18:43:59.621Z,64.30
2022-09-18T18:46:29.827Z,64.30
2022-09-18T18:49:00.396Z,64.30
2022-09-18T18:51:31.431Z,64.30
2022-09-18T18:54:02.223Z,64.40
2022-09-18T18:56:32.345Z,64.30
2022-09-18T18:59:02.506Z,64.40
2022-09-18T19:01:32.342Z,64.30
2022-09-18T19:04:02.982Z,64.30
2022-09-18T19:06:31.364Z,64.30
2022-09-18T19:09:02.861Z,64.30
2022-09-18T19:11:33.008Z,64.40
2022-09-18T19:14:01.288Z,64.50
2022-09-18T19:16:32.247Z,64.50
2022-09-18T19:19:01.068Z,64.50
2022-09-18T19:21:30.040Z,64.50
2022-09-18T19:24:00.369Z,64.50
2022-09-18T19:26:29.837Z,64.40
2022-09-18T19:28:59.508Z,64.50
2022-09-18T19:31:29.284Z,64.30
2022-09-18T19:33:58.008Z,64.40
2022-09-18T19:36:29.289Z,64.30
2022-09-18T19:38:59.523Z,64.40
2022-09-18T19:41:38.795Z,64.40
2022-09-18T19:44:11.309Z,64.50
2022-09-18T19:46:39.942Z,64.50
2022-09-18T19:49:13.288Z,64.50
2022-09-18T19:51:41.436Z,64.70
2022-09-18T19:54:09.525Z,64.70
2022-09-18T19:56:43.306Z,64.50
2022-09-18T19:59:11.751Z,64.70
2022-09-18T20:01:39.921Z,64.80
2022-09-18T20:04:08.131Z,64.90
2022-09-18T20:06:38.305Z,64.90
2022-09-18T20:09:07.112Z,64.90
2022-09-18T20:11:35.253Z,65.00
2022-09-18T20:14:04.998Z,64.90
2022-09-18T20:16:33.212Z,65.10
2022-09-18T20:19:01.786Z,64.90
2022-09-18T20:21:31.045Z,65.00
2022-09-18T20:24:00.098Z,64.90
2022-09-18T20:26:28.875Z,64.90
2022-09-18T20:28:57.063Z,64.90
2022-09-18T20:31:26.595Z,64.80
2022-09-18T20:33:56.092Z,65.00
2022-09-18T20:36:25.662Z,64.80
2022-09-18T20:38:57.970Z,64.70
2022-09-18T20:41:28.003Z,64.70
2022-09-18T20:43:56.330Z,64.80
2022-09-18T20:46:27.548Z,64.90
2022-09-18T20:48:56.017Z,64.90
2022-09-18T20:51:25.794Z,65.00
2022-09-18T20:53:56.224Z,64.90
2022-09-18T20:56:26.471Z,64.80
2022-09-18T20:58:55.205Z,64.70
2022-09-18T21:01:29.683Z,64.90
2022-09-18T21:03:59.927Z,64.80
2022-09-18T21:06:31.643Z,64.80
2022-09-18T21:09:01.130Z,64.90
2022-09-18T21:11:30.590Z,64.80
2022-09-18T21:14:00.801Z,64.70
2022-09-18T21:16:32.277Z,64.80
2022-09-18T21:19:02.064Z,64.70
2022-09-18T21:21:34.338Z,64.80
2022-09-18T21:24:02.873Z,64.90
2022-09-18T21:26:33.324Z,64.90
2022-09-18T21:29:03.201Z,64.90
2022-09-18T21:31:39.331Z,64.90
2022-09-18T21:34:07.455Z,64.80
2022-09-18T21:36:38.579Z,64.80
2022-09-18T21:39:07.416Z,64.80
2022-09-18T21:41:38.669Z,64.90
2022-09-18T21:44:08.830Z,64.80
2022-09-18T21:46:40.384Z,64.90
2022-09-18T21:49:09.396Z,64.80
2022-09-18T21:51:40.205Z,64.90
2022-09-18T21:54:12.878Z,64.80
2022-09-18T21:56:41.458Z,64.80
2022-09-18T21:59:11.119Z,64.80
2022-09-18T22:01:41.785Z,64.80
2022-09-18T22:04:10.665Z,64.80
2022-09-18T22:06:41.648Z,64.80
2022-09-18T22:09:14.530Z,64.90
2022-09-18T22:11:44.870Z,64.90
2022-09-18T22:14:14.938Z,64.90
2022-09-18T22:16:45.682Z,64.90
2022-09-18T22:19:14.605Z,65.00
2022-09-18T22:21:44.799Z,64.90
2022-09-18T22:24:15.789Z,65.00
2022-09-18T22:26:46.449Z,65.00
2022-09-18T22:29:17.773Z,64.90
2022-09-18T22:31:48.026Z,64.90
2022-09-18T22:34:17.536Z,64.90
2022-09-18T22:36:46.239Z,64.90
2022-09-18T22:39:14.980Z,64.90
2022-09-18T22:41:43.044Z,64.90
2022-09-18T22:44:12.169Z,64.90
2022-09-18T22:46:42.614Z,64.80
2022-09-18T22:49:14.729Z,64.70
2022-09-18T22:51:43.370Z,64.80
2022-09-18T22:54:11.821Z,64.80
2022-09-18T22:56:43.006Z,64.80
2022-09-18T22:59:13.990Z,64.90
2022-09-18T23:01:46.274Z,64.80
2022-09-18T23:04:18.804Z,64.80
2022-09-18T23:06:47.719Z,64.80
2022-09-18T23:09:16.783Z,64.80
2022-09-18T23:11:46.580Z,64.80
2022-09-18T23:14:17.006Z,64.90
2022-09-18T23:16:45.172Z,64.80
2022-09-18T23:19:17.223Z,65.00
2022-09-18T23:21:45.355Z,65.00
2022-09-18T23:24:15.985Z,64.90
2022-09-18T23:26:45.625Z,64.90
2022-09-18T23:29:16.531Z,65.00
2022-09-18T23:31:46.586Z,64.90
2022-09-18T23:34:18.338Z,65.00
2022-09-18T23:36:47.732Z,65.10
2022-09-18T23:39:18.244Z,65.00
2022-09-18T23:41:46.917Z,65.00
2022-09-18T23:44:17.207Z,65.10
2022-09-18T23:46:46.373Z,65.10
2022-09-18T23:49:17.067Z,65.00
2022-09-18T23:51:47.097Z,65.00
2022-09-18T23:54:17.647Z,65.10
2022-09-18T23:56:46.268Z,65.10
2022-09-18T23:59:18.632Z,65.10
